07:24
Airports
History
Links
Donate
Help keep this website running!
PayPal
Bitcoin
This page is community maintained. The information is intended for PC simulator navigation or reference.
Always use approved charts for navigation.
YMHB
HobartEdited 30-Jun-2011
Hobart (YMHB)
Cambridge, Tasmania, Australia (7170)
(C)
Lat/Lng:42° 50' 10.18" S / 147° 30' 42.39" E
-42.836161 / 147.511775
Elevation:12'ft / 4mMSL
ID / ICAO:YMHB
Runways:1
Longest:12-30
Asphalt 2,253m / 7,392ft
Controlled:Yes
Beacon:White-Green
(Edited 2011-06-30) [ Sign in to Edit ]
METAR07:00 GMT 2017-09-23
Altimeter: 29.18
Visibility: 6.2 statute miles
Wind: 3 knots (from 360°)
Temp: 17°c / 63°f
Humidity: 72.4%

METAR: YMHB 230700Z 36003KT 9999 FEW030 BKN140 17/12 Q0988

(Powered by phpweather)
Airport Radio Frequencies
YMHB ATIS: 128.44
HOBART MULT: 118.1
Tower: 118.1
Runway 12 / 30
Dimensions:2253.1 x 45.1m 7392' x 148'ft
Surface:Asphalt
Edge Lights:Medium intensity
Runway 12 [A]Runway 30 [B]
Heading:135°TH 315°TH
Lat:
Lng:
42° 49' 44.31"S
147° 30' 7.41"E
42° 50' 36.05"S
147° 31' 17.37"E
ALS:Calvert
TDZ:Yes, lighted
User Notes and Comments
42° 50' 10.18" S / 147° 30' 42.39" E
Distance To
Airport ID:
Nearby Airports
(C) Cambridge 1.9 NM
YCBG WNW 291°
4 SANDFLY 18.3 NM
YSFY SW 236°
4 LAGOON BAY 22.7 NM
YLAG E 98°
4 KEMPTON 26.3 NM
YKPN NW 322°
4 Bruny Island 28.3 NM
YBYI SSW 193°
4 Triabunna 29.7 NM
YTUA NE 41°
4 Darlington 33.5 NM
YDAR ENE 57°
VFR Chart
Flight Planning at SkyVector.com